sensor_id;sensor_type;location;lat;lon;timestamp;temperature;humidity
18690;DHT22;9782;52.930;15.562;2022-07-17T00:02:50;13.10;1.00
18690;DHT22;9782;52.930;15.562;2022-07-17T00:05:25;13.00;1.00
18690;DHT22;9782;52.930;15.562;2022-07-17T00:08:02;13.00;1.00
18690;DHT22;9782;52.930;15.562;2022-07-17T00:10:50;13.00;76.10
18690;DHT22;9782;52.930;15.562;2022-07-17T00:13:35;12.90;99.90
18690;DHT22;9782;52.930;15.562;2022-07-17T00:16:26;12.90;16.90
18690;DHT22;9782;52.930;15.562;2022-07-17T00:19:12;12.90;99.90
18690;DHT22;9782;52.930;15.562;2022-07-17T00:22:06;12.90;99.90
18690;DHT22;9782;52.930;15.562;2022-07-17T00:24:39;12.80;99.90
18690;DHT22;9782;52.930;15.562;2022-07-17T00:27:20;12.80;99.90
18690;DHT22;9782;52.930;15.562;2022-07-17T00:30:12;12.70;99.90
18690;DHT22;9782;52.930;15.562;2022-07-17T00:33:05;12.70;99.90
18690;DHT22;9782;52.930;15.562;2022-07-17T00:35:42;12.70;99.90
18690;DHT22;9782;52.930;15.562;2022-07-17T00:38:41;12.70;99.90
18690;DHT22;9782;52.930;15.562;2022-07-17T00:41:30;12.60;1.00
18690;DHT22;9782;52.930;15.562;2022-07-17T00:44:10;12.60;99.90
18690;DHT22;9782;52.930;15.562;2022-07-17T00:46:54;12.60;1.00
18690;DHT22;9782;52.930;15.562;2022-07-17T00:49:29;12.50;99.90
18690;DHT22;9782;52.930;15.562;2022-07-17T00:52:15;12.50;99.90
18690;DHT22;9782;52.930;15.562;2022-07-17T00:54:51;12.40;99.90
18690;DHT22;9782;52.930;15.562;2022-07-17T00:57:48;12.40;99.90
18690;DHT22;9782;52.930;15.562;2022-07-17T01:00:29;12.30;99.90
18690;DHT22;9782;52.930;15.562;2022-07-17T01:03:11;12.30;99.90
18690;DHT22;9782;52.930;15.562;2022-07-17T01:05:41;12.30;99.90
18690;DHT22;9782;52.930;15.562;2022-07-17T01:08:32;12.20;99.90
18690;DHT22;9782;52.930;15.562;2022-07-17T01:11:12;12.20;99.90
18690;DHT22;9782;52.930;15.562;2022-07-17T01:13:56;12.10;1.00
18690;DHT22;9782;52.930;15.562;2022-07-17T01:16:40;12.10;1.00
18690;DHT22;9782;52.930;15.562;2022-07-17T01:19:26;12.00;1.00
18690;DHT22;9782;52.930;15.562;2022-07-17T01:22:07;12.00;1.00
18690;DHT22;9782;52.930;15.562;2022-07-17T01:24:47;11.90;1.00
18690;DHT22;9782;52.930;15.562;2022-07-17T01:27:33;11.90;1.00
18690;DHT22;9782;52.930;15.562;2022-07-17T01:30:26;11.80;1.00
18690;DHT22;9782;52.930;15.562;2022-07-17T01:33:09;11.80;1.00
18690;DHT22;9782;52.930;15.562;2022-07-17T01:42:15;11.70;1.00
18690;DHT22;9782;52.930;15.562;2022-07-17T01:45:01;11.60;1.00
18690;DHT22;9782;52.930;15.562;2022-07-17T01:48:10;11.60;1.00
18690;DHT22;9782;52.930;15.562;2022-07-17T01:50:58;11.50;99.90
18690;DHT22;9782;52.930;15.562;2022-07-17T01:56:59;11.40;1.00
18690;DHT22;9782;52.930;15.562;2022-07-17T01:59:50;11.40;1.00
18690;DHT22;9782;52.930;15.562;2022-07-17T02:02:33;11.40;1.00
18690;DHT22;9782;52.930;15.562;2022-07-17T02:05:29;11.30;1.00
18690;DHT22;9782;52.930;15.562;2022-07-17T02:08:10;11.30;1.00
18690;DHT22;9782;52.930;15.562;2022-07-17T02:10:50;11.30;1.00
18690;DHT22;9782;52.930;15.562;2022-07-17T02:13:26;11.30;1.00
18690;DHT22;9782;52.930;15.562;2022-07-17T02:16:00;11.30;1.00
18690;DHT22;9782;52.930;15.562;2022-07-17T02:18:38;11.20;1.00
18690;DHT22;9782;52.930;15.562;2022-07-17T02:21:15;11.20;1.00
18690;DHT22;9782;52.930;15.562;2022-07-17T02:23:58;11.20;1.00
18690;DHT22;9782;52.930;15.562;2022-07-17T02:26:55;11.20;1.40
18690;DHT22;9782;52.930;15.562;2022-07-17T02:29:42;11.20;52.40
18690;DHT22;9782;52.930;15.562;2022-07-17T02:32:27;11.10;99.90
18690;DHT22;9782;52.930;15.562;2022-07-17T02:35:05;11.10;99.90
18690;DHT22;9782;52.930;15.562;2022-07-17T02:37:48;11.10;71.90
18690;DHT22;9782;52.930;15.562;2022-07-17T02:40:28;11.00;99.00
18690;DHT22;9782;52.930;15.562;2022-07-17T02:42:59;11.00;99.90
18690;DHT22;9782;52.930;15.562;2022-07-17T02:46:11;11.00;99.90
18690;DHT22;9782;52.930;15.562;2022-07-17T02:48:51;11.00;1.00
18690;DHT22;9782;52.930;15.562;2022-07-17T02:51:53;11.00;99.90
18690;DHT22;9782;52.930;15.562;2022-07-17T02:54:37;11.00;1.00
18690;DHT22;9782;52.930;15.562;2022-07-17T02:57:13;11.00;1.00
18690;DHT22;9782;52.930;15.562;2022-07-17T02:59:50;10.90;99.90
18690;DHT22;9782;52.930;15.562;2022-07-17T03:02:22;10.90;99.90
18690;DHT22;9782;52.930;15.562;2022-07-17T03:04:49;10.90;99.90
18690;DHT22;9782;52.930;15.562;2022-07-17T03:07:22;10.90;1.00
18690;DHT22;9782;52.930;15.562;2022-07-17T03:09:49;10.90;1.00
18690;DHT22;9782;52.930;15.562;2022-07-17T03:12:16;10.90;1.00
18690;DHT22;9782;52.930;15.562;2022-07-17T03:14:43;11.00;1.00
18690;DHT22;9782;52.930;15.562;2022-07-17T03:17:13;11.00;1.00
18690;DHT22;9782;52.930;15.562;2022-07-17T03:19:42;11.00;1.00
18690;DHT22;9782;52.930;15.562;2022-07-17T03:22:09;11.00;1.00
18690;DHT22;9782;52.930;15.562;2022-07-17T03:24:45;11.00;1.00
18690;DHT22;9782;52.930;15.562;2022-07-17T03:27:20;11.10;1.00
18690;DHT22;9782;52.930;15.562;2022-07-17T03:29:51;11.10;1.00
18690;DHT22;9782;52.930;15.562;2022-07-17T03:32:19;11.20;1.00
18690;DHT22;9782;52.930;15.562;2022-07-17T03:34:51;11.20;1.00
18690;DHT22;9782;52.930;15.562;2022-07-17T03:37:32;11.30;1.00
18690;DHT22;9782;52.930;15.562;2022-07-17T03:39:59;11.30;1.00
18690;DHT22;9782;52.930;15.562;2022-07-17T03:42:31;11.30;1.00
18690;DHT22;9782;52.930;15.562;2022-07-17T03:45:05;11.40;1.00
18690;DHT22;9782;52.930;15.562;2022-07-17T03:47:35;11.50;1.00
18690;DHT22;9782;52.930;15.562;2022-07-17T03:50:04;11.50;1.00
18690;DHT22;9782;52.930;15.562;2022-07-17T03:52:31;11.60;99.90
18690;DHT22;9782;52.930;15.562;2022-07-17T03:55:01;11.70;99.90
18690;DHT22;9782;52.930;15.562;2022-07-17T03:57:31;12.00;1.00
18690;DHT22;9782;52.930;15.562;2022-07-17T03:59:58;12.90;1.00
18690;DHT22;9782;52.930;15.562;2022-07-17T04:02:28;14.00;99.90
18690;DHT22;9782;52.930;15.562;2022-07-17T04:04:55;15.10;1.00
18690;DHT22;9782;52.930;15.562;2022-07-17T04:07:24;16.10;1.00
18690;DHT22;9782;52.930;15.562;2022-07-17T04:09:55;17.10;99.90
18690;DHT22;9782;52.930;15.562;2022-07-17T04:12:23;18.00;1.00
18690;DHT22;9782;52.930;15.562;2022-07-17T04:14:50;18.80;1.00
18690;DHT22;9782;52.930;15.562;2022-07-17T04:17:17;19.50;99.90
18690;DHT22;9782;52.930;15.562;2022-07-17T04:19:44;20.20;1.00
18690;DHT22;9782;52.930;15.562;2022-07-17T04:22:10;20.90;1.00
18690;DHT22;9782;52.930;15.562;2022-07-17T04:24:39;21.50;1.00
18690;DHT22;9782;52.930;15.562;2022-07-17T04:27:06;22.10;99.90
18690;DHT22;9782;52.930;15.562;2022-07-17T04:29:33;22.70;1.00
18690;DHT22;9782;52.930;15.562;2022-07-17T04:32:10;23.40;1.00
18690;DHT22;9782;52.930;15.562;2022-07-17T04:34:40;23.90;99.90
18690;DHT22;9782;52.930;15.562;2022-07-17T04:37:13;24.50;99.90
18690;DHT22;9782;52.930;15.562;2022-07-17T04:39:41;24.90;1.00
18690;DHT22;9782;52.930;15.562;2022-07-17T04:42:08;25.20;1.00
18690;DHT22;9782;52.930;15.562;2022-07-17T04:44:35;25.50;1.00
18690;DHT22;9782;52.930;15.562;2022-07-17T04:47:11;25.80;1.00
18690;DHT22;9782;52.930;15.562;2022-07-17T04:49:45;25.90;1.00
18690;DHT22;9782;52.930;15.562;2022-07-17T04:52:20;26.20;1.00
18690;DHT22;9782;52.930;15.562;2022-07-17T04:54:58;26.50;1.00
18690;DHT22;9782;52.930;15.562;2022-07-17T04:57:24;26.90;1.00
18690;DHT22;9782;52.930;15.562;2022-07-17T04:59:52;27.10;1.00
18690;DHT22;9782;52.930;15.562;2022-07-17T05:02:21;27.40;99.90
18690;DHT22;9782;52.930;15.562;2022-07-17T05:04:50;27.60;99.90
18690;DHT22;9782;52.930;15.562;2022-07-17T05:07:17;27.80;99.90
18690;DHT22;9782;52.930;15.562;2022-07-17T05:09:57;28.10;99.90
18690;DHT22;9782;52.930;15.562;2022-07-17T05:12:24;28.20;99.90
18690;DHT22;9782;52.930;15.562;2022-07-17T05:14:51;28.30;99.90
18690;DHT22;9782;52.930;15.562;2022-07-17T05:17:24;28.40;99.90
18690;DHT22;9782;52.930;15.562;2022-07-17T05:19:52;28.40;99.90
18690;DHT22;9782;52.930;15.562;2022-07-17T05:22:20;28.70;99.90
18690;DHT22;9782;52.930;15.562;2022-07-17T05:24:55;29.10;99.90
18690;DHT22;9782;52.930;15.562;2022-07-17T05:27:29;29.50;99.90
18690;DHT22;9782;52.930;15.562;2022-07-17T05:29:56;30.00;99.90
18690;DHT22;9782;52.930;15.562;2022-07-17T05:32:22;30.10;99.90
18690;DHT22;9782;52.930;15.562;2022-07-17T05:34:49;30.30;99.90
18690;DHT22;9782;52.930;15.562;2022-07-17T05:37:19;30.40;99.90
18690;DHT22;9782;52.930;15.562;2022-07-17T05:39:50;30.60;99.90
18690;DHT22;9782;52.930;15.562;2022-07-17T05:42:17;30.90;99.90
18690;DHT22;9782;52.930;15.562;2022-07-17T05:44:46;31.10;99.90
18690;DHT22;9782;52.930;15.562;2022-07-17T05:47:29;31.40;99.90
18690;DHT22;9782;52.930;15.562;2022-07-17T05:49:56;31.50;99.90
18690;DHT22;9782;52.930;15.562;2022-07-17T05:52:23;31.60;99.90
18690;DHT22;9782;52.930;15.562;2022-07-17T05:54:50;31.70;99.90
18690;DHT22;9782;52.930;15.562;2022-07-17T05:57:18;31.50;99.90
18690;DHT22;9782;52.930;15.562;2022-07-17T05:59:53;31.70;99.90
18690;DHT22;9782;52.930;15.562;2022-07-17T06:02:20;32.10;99.90
18690;DHT22;9782;52.930;15.562;2022-07-17T06:04:47;32.30;99.90
18690;DHT22;9782;52.930;15.562;2022-07-17T06:07:14;32.60;99.90
18690;DHT22;9782;52.930;15.562;2022-07-17T06:09:41;32.90;99.90
18690;DHT22;9782;52.930;15.562;2022-07-17T06:12:16;33.10;99.90
18690;DHT22;9782;52.930;15.562;2022-07-17T06:14:52;33.30;99.90
18690;DHT22;9782;52.930;15.562;2022-07-17T06:17:26;33.50;99.90
18690;DHT22;9782;52.930;15.562;2022-07-17T06:20:11;33.60;99.90
18690;DHT22;9782;52.930;15.562;2022-07-17T06:22:48;33.80;99.90
18690;DHT22;9782;52.930;15.562;2022-07-17T06:25:23;33.90;99.90
18690;DHT22;9782;52.930;15.562;2022-07-17T06:27:55;34.10;99.90
18690;DHT22;9782;52.930;15.562;2022-07-17T06:30:28;34.30;99.90
18690;DHT22;9782;52.930;15.562;2022-07-17T06:33:04;34.50;99.90
18690;DHT22;9782;52.930;15.562;2022-07-17T06:35:43;34.70;99.90
18690;DHT22;9782;52.930;15.562;2022-07-17T06:38:12;34.70;99.90
18690;DHT22;9782;52.930;15.562;2022-07-17T06:40:40;34.60;99.90
18690;DHT22;9782;52.930;15.562;2022-07-17T06:43:19;33.90;99.90
18690;DHT22;9782;52.930;15.562;2022-07-17T06:45:56;32.90;99.90
18690;DHT22;9782;52.930;15.562;2022-07-17T06:48:35;31.60;99.90
18690;DHT22;9782;52.930;15.562;2022-07-17T06:51:07;30.10;99.90
18690;DHT22;9782;52.930;15.562;2022-07-17T06:53:34;28.70;99.90
18690;DHT22;9782;52.930;15.562;2022-07-17T06:56:06;27.70;99.90
18690;DHT22;9782;52.930;15.562;2022-07-17T06:58:40;27.20;99.90
18690;DHT22;9782;52.930;15.562;2022-07-17T07:01:11;26.50;99.90
18690;DHT22;9782;52.930;15.562;2022-07-17T07:03:47;25.70;99.90
18690;DHT22;9782;52.930;15.562;2022-07-17T07:06:21;25.20;99.90
18690;DHT22;9782;52.930;15.562;2022-07-17T07:08:51;25.20;99.90
18690;DHT22;9782;52.930;15.562;2022-07-17T07:11:23;25.20;99.90
18690;DHT22;9782;52.930;15.562;2022-07-17T07:13:57;25.10;99.90
18690;DHT22;9782;52.930;15.562;2022-07-17T07:16:25;25.00;99.90
18690;DHT22;9782;52.930;15.562;2022-07-17T07:18:52;25.00;99.90
18690;DHT22;9782;52.930;15.562;2022-07-17T07:21:19;24.70;99.90
18690;DHT22;9782;52.930;15.562;2022-07-17T07:23:46;24.20;99.90
18690;DHT22;9782;52.930;15.562;2022-07-17T07:26:13;23.60;99.90
18690;DHT22;9782;52.930;15.562;2022-07-17T07:28:40;22.90;99.90
18690;DHT22;9782;52.930;15.562;2022-07-17T07:31:07;22.40;99.90
18690;DHT22;9782;52.930;15.562;2022-07-17T07:33:35;21.80;99.90
18690;DHT22;9782;52.930;15.562;2022-07-17T07:36:02;21.40;99.90
18690;DHT22;9782;52.930;15.562;2022-07-17T07:38:29;21.10;99.90
18690;DHT22;9782;52.930;15.562;2022-07-17T07:40:56;20.80;99.90
18690;DHT22;9782;52.930;15.562;2022-07-17T07:43:23;21.30;99.90
18690;DHT22;9782;52.930;15.562;2022-07-17T07:45:50;22.30;99.90
18690;DHT22;9782;52.930;15.562;2022-07-17T07:48:20;22.60;99.90
18690;DHT22;9782;52.930;15.562;2022-07-17T07:50:54;22.60;99.90
18690;DHT22;9782;52.930;15.562;2022-07-17T07:53:30;22.40;99.90
18690;DHT22;9782;52.930;15.562;2022-07-17T07:56:01;22.40;99.90
18690;DHT22;9782;52.930;15.562;2022-07-17T07:58:29;22.40;99.90
18690;DHT22;9782;52.930;15.562;2022-07-17T08:01:00;22.30;99.90
18690;DHT22;9782;52.930;15.562;2022-07-17T08:03:31;22.00;99.90
18690;DHT22;9782;52.930;15.562;2022-07-17T08:06:24;21.80;99.90
18690;DHT22;9782;52.930;15.562;2022-07-17T08:08:59;21.90;99.90
18690;DHT22;9782;52.930;15.562;2022-07-17T08:11:52;22.10;99.90
18690;DHT22;9782;52.930;15.562;2022-07-17T08:14:20;22.20;99.90
18690;DHT22;9782;52.930;15.562;2022-07-17T08:16:47;22.20;99.90
18690;DHT22;9782;52.930;15.562;2022-07-17T08:19:14;22.00;99.90
18690;DHT22;9782;52.930;15.562;2022-07-17T08:21:43;21.90;99.90
18690;DHT22;9782;52.930;15.562;2022-07-17T08:24:14;22.00;99.90
18690;DHT22;9782;52.930;15.562;2022-07-17T08:26:50;22.30;99.90
18690;DHT22;9782;52.930;15.562;2022-07-17T08:29:18;23.00;99.90
18690;DHT22;9782;52.930;15.562;2022-07-17T08:31:45;23.70;99.90
18690;DHT22;9782;52.930;15.562;2022-07-17T08:34:12;24.40;99.90
18690;DHT22;9782;52.930;15.562;2022-07-17T08:36:40;24.70;99.90
18690;DHT22;9782;52.930;15.562;2022-07-17T08:39:09;25.20;99.90
18690;DHT22;9782;52.930;15.562;2022-07-17T08:41:36;25.80;99.90
18690;DHT22;9782;52.930;15.562;2022-07-17T08:44:04;26.20;99.90
18690;DHT22;9782;52.930;15.562;2022-07-17T08:46:32;26.50;99.90
18690;DHT22;9782;52.930;15.562;2022-07-17T08:49:02;26.30;99.90
18690;DHT22;9782;52.930;15.562;2022-07-17T08:51:54;25.80;99.90
18690;DHT22;9782;52.930;15.562;2022-07-17T08:54:36;25.70;99.90
18690;DHT22;9782;52.930;15.562;2022-07-17T08:57:13;25.80;99.90
18690;DHT22;9782;52.930;15.562;2022-07-17T08:59:43;25.50;99.90
18690;DHT22;9782;52.930;15.562;2022-07-17T09:02:13;25.10;99.90
18690;DHT22;9782;52.930;15.562;2022-07-17T09:04:56;25.40;99.90
18690;DHT22;9782;52.930;15.562;2022-07-17T09:07:30;25.80;99.90
18690;DHT22;9782;52.930;15.562;2022-07-17T09:09:59;26.00;99.90
18690;DHT22;9782;52.930;15.562;2022-07-17T09:12:28;25.90;99.90
18690;DHT22;9782;52.930;15.562;2022-07-17T09:14:56;26.30;99.90
18690;DHT22;9782;52.930;15.562;2022-07-17T09:17:30;26.70;99.90
18690;DHT22;9782;52.930;15.562;2022-07-17T09:20:12;26.70;99.90
18690;DHT22;9782;52.930;15.562;2022-07-17T09:22:56;26.30;99.90
18690;DHT22;9782;52.930;15.562;2022-07-17T09:25:53;26.10;99.90
18690;DHT22;9782;52.930;15.562;2022-07-17T09:28:51;26.10;99.90
18690;DHT22;9782;52.930;15.562;2022-07-17T09:31:38;26.30;99.90
18690;DHT22;9782;52.930;15.562;2022-07-17T09:34:19;26.80;99.90
18690;DHT22;9782;52.930;15.562;2022-07-17T09:36:59;26.70;99.90
18690;DHT22;9782;52.930;15.562;2022-07-17T09:39:34;26.70;99.90
18690;DHT22;9782;52.930;15.562;2022-07-17T09:42:03;27.10;99.90
18690;DHT22;9782;52.930;15.562;2022-07-17T09:44:30;27.40;99.90
18690;DHT22;9782;52.930;15.562;2022-07-17T09:47:03;27.40;99.90
18690;DHT22;9782;52.930;15.562;2022-07-17T09:49:33;27.20;99.90
18690;DHT22;9782;52.930;15.562;2022-07-17T09:52:01;27.10;99.90
18690;DHT22;9782;52.930;15.562;2022-07-17T09:54:35;27.00;99.90
18690;DHT22;9782;52.930;15.562;2022-07-17T09:57:04;26.80;99.90
18690;DHT22;9782;52.930;15.562;2022-07-17T09:59:35;26.80;99.90
18690;DHT22;9782;52.930;15.562;2022-07-17T10:02:03;26.70;99.90
18690;DHT22;9782;52.930;15.562;2022-07-17T10:04:31;26.60;99.90
18690;DHT22;9782;52.930;15.562;2022-07-17T10:06:59;26.60;99.90
18690;DHT22;9782;52.930;15.562;2022-07-17T10:09:27;26.70;99.90
18690;DHT22;9782;52.930;15.562;2022-07-17T10:11:54;26.70;99.90
18690;DHT22;9782;52.930;15.562;2022-07-17T10:14:23;26.50;99.90
18690;DHT22;9782;52.930;15.562;2022-07-17T10:16:50;26.20;99.90
18690;DHT22;9782;52.930;15.562;2022-07-17T10:19:18;26.00;99.90
18690;DHT22;9782;52.930;15.562;2022-07-17T10:21:54;26.10;99.90
18690;DHT22;9782;52.930;15.562;2022-07-17T10:24:23;26.10;99.90
18690;DHT22;9782;52.930;15.562;2022-07-17T10:26:50;26.30;99.90
18690;DHT22;9782;52.930;15.562;2022-07-17T10:29:33;26.50;99.90
18690;DHT22;9782;52.930;15.562;2022-07-17T10:32:02;26.80;99.90
18690;DHT22;9782;52.930;15.562;2022-07-17T10:34:40;27.10;99.90
18690;DHT22;9782;52.930;15.562;2022-07-17T10:37:21;27.10;99.90
18690;DHT22;9782;52.930;15.562;2022-07-17T10:39:57;26.80;99.90
18690;DHT22;9782;52.930;15.562;2022-07-17T10:42:46;26.80;99.90
18690;DHT22;9782;52.930;15.562;2022-07-17T10:45:16;27.00;99.90
18690;DHT22;9782;52.930;15.562;2022-07-17T10:47:45;27.10;99.90
18690;DHT22;9782;52.930;15.562;2022-07-17T10:50:13;27.00;99.90
18690;DHT22;9782;52.930;15.562;2022-07-17T10:52:40;27.00;99.90
18690;DHT22;9782;52.930;15.562;2022-07-17T10:55:18;27.00;99.90
18690;DHT22;9782;52.930;15.562;2022-07-17T10:57:45;26.90;99.90
18690;DHT22;9782;52.930;15.562;2022-07-17T11:00:16;26.90;99.90
18690;DHT22;9782;52.930;15.562;2022-07-17T11:02:43;26.60;99.90
18690;DHT22;9782;52.930;15.562;2022-07-17T11:05:12;26.50;99.90
18690;DHT22;9782;52.930;15.562;2022-07-17T11:07:55;26.30;99.90
18690;DHT22;9782;52.930;15.562;2022-07-17T11:10:26;26.10;99.90
18690;DHT22;9782;52.930;15.562;2022-07-17T11:12:53;25.90;99.90
18690;DHT22;9782;52.930;15.562;2022-07-17T11:15:22;25.80;99.90
18690;DHT22;9782;52.930;15.562;2022-07-17T11:17:49;25.60;99.90
18690;DHT22;9782;52.930;15.562;2022-07-17T11:20:16;25.40;99.90
18690;DHT22;9782;52.930;15.562;2022-07-17T11:22:43;25.20;99.90
18690;DHT22;9782;52.930;15.562;2022-07-17T11:25:10;25.10;99.90
18690;DHT22;9782;52.930;15.562;2022-07-17T11:27:37;24.90;99.90
18690;DHT22;9782;52.930;15.562;2022-07-17T11:30:05;24.80;99.90
18690;DHT22;9782;52.930;15.562;2022-07-17T11:32:38;24.60;99.90
18690;DHT22;9782;52.930;15.562;2022-07-17T11:35:13;24.60;99.90
18690;DHT22;9782;52.930;15.562;2022-07-17T11:37:40;24.50;99.90
18690;DHT22;9782;52.930;15.562;2022-07-17T11:40:07;24.50;99.90
18690;DHT22;9782;52.930;15.562;2022-07-17T11:42:34;24.40;99.90
18690;DHT22;9782;52.930;15.562;2022-07-17T11:45:01;24.40;99.90
18690;DHT22;9782;52.930;15.562;2022-07-17T11:47:28;24.50;99.90
18690;DHT22;9782;52.930;15.562;2022-07-17T11:50:04;24.50;99.90
18690;DHT22;9782;52.930;15.562;2022-07-17T11:52:39;24.50;99.90
18690;DHT22;9782;52.930;15.562;2022-07-17T11:55:06;24.50;99.90
18690;DHT22;9782;52.930;15.562;2022-07-17T11:57:40;24.40;99.90
18690;DHT22;9782;52.930;15.562;2022-07-17T12:00:08;24.40;99.90
18690;DHT22;9782;52.930;15.562;2022-07-17T12:02:35;24.40;99.90
18690;DHT22;9782;52.930;15.562;2022-07-17T12:05:02;24.40;99.90
18690;DHT22;9782;52.930;15.562;2022-07-17T12:07:43;24.30;99.90
18690;DHT22;9782;52.930;15.562;2022-07-17T12:10:16;24.30;99.90
18690;DHT22;9782;52.930;15.562;2022-07-17T12:12:54;24.20;99.90
18690;DHT22;9782;52.930;15.562;2022-07-17T12:15:32;24.20;99.90
18690;DHT22;9782;52.930;15.562;2022-07-17T12:18:00;24.00;99.90
18690;DHT22;9782;52.930;15.562;2022-07-17T12:20:40;23.90;99.90
18690;DHT22;9782;52.930;15.562;2022-07-17T12:23:09;24.00;99.90
18690;DHT22;9782;52.930;15.562;2022-07-17T12:25:51;24.00;99.90
18690;DHT22;9782;52.930;15.562;2022-07-17T12:28:29;24.00;99.90
18690;DHT22;9782;52.930;15.562;2022-07-17T12:30:56;24.00;99.90
18690;DHT22;9782;52.930;15.562;2022-07-17T12:33:24;24.10;99.90
18690;DHT22;9782;52.930;15.562;2022-07-17T12:35:51;24.10;99.90
18690;DHT22;9782;52.930;15.562;2022-07-17T12:38:19;24.10;99.90
18690;DHT22;9782;52.930;15.562;2022-07-17T12:40:46;24.10;99.90
18690;DHT22;9782;52.930;15.562;2022-07-17T12:43:13;24.10;99.90
18690;DHT22;9782;52.930;15.562;2022-07-17T12:45:40;24.10;99.90
18690;DHT22;9782;52.930;15.562;2022-07-17T12:48:07;24.20;99.90
18690;DHT22;9782;52.930;15.562;2022-07-17T12:50:35;24.10;99.90
18690;DHT22;9782;52.930;15.562;2022-07-17T12:53:11;24.10;99.90
18690;DHT22;9782;52.930;15.562;2022-07-17T12:55:44;24.10;99.90
18690;DHT22;9782;52.930;15.562;2022-07-17T12:58:11;24.20;99.90
18690;DHT22;9782;52.930;15.562;2022-07-17T13:00:38;24.10;99.90
18690;DHT22;9782;52.930;15.562;2022-07-17T13:03:05;24.10;99.90
18690;DHT22;9782;52.930;15.562;2022-07-17T13:05:32;24.10;99.90
18690;DHT22;9782;52.930;15.562;2022-07-17T13:07:59;24.10;99.90
18690;DHT22;9782;52.930;15.562;2022-07-17T13:10:30;24.20;99.90
18690;DHT22;9782;52.930;15.562;2022-07-17T13:13:07;24.10;99.90
18690;DHT22;9782;52.930;15.562;2022-07-17T13:15:43;24.10;99.90
18690;DHT22;9782;52.930;15.562;2022-07-17T13:18:19;24.10;99.90
18690;DHT22;9782;52.930;15.562;2022-07-17T13:20:56;24.00;99.90
18690;DHT22;9782;52.930;15.562;2022-07-17T13:23:42;24.10;99.90
18690;DHT22;9782;52.930;15.562;2022-07-17T13:26:14;24.00;99.90
18690;DHT22;9782;52.930;15.562;2022-07-17T13:29:02;24.10;99.90
18690;DHT22;9782;52.930;15.562;2022-07-17T13:31:37;24.10;99.90
18690;DHT22;9782;52.930;15.562;2022-07-17T13:34:42;24.10;99.90
18690;DHT22;9782;52.930;15.562;2022-07-17T13:37:31;24.10;99.90
18690;DHT22;9782;52.930;15.562;2022-07-17T13:43:29;24.10;99.90
18690;DHT22;9782;52.930;15.562;2022-07-17T13:46:23;23.90;99.90
18690;DHT22;9782;52.930;15.562;2022-07-17T13:54:45;23.80;99.90
18690;DHT22;9782;52.930;15.562;2022-07-17T14:00:33;23.80;99.90
18690;DHT22;9782;52.930;15.562;2022-07-17T14:03:14;23.80;99.90
18690;DHT22;9782;52.930;15.562;2022-07-17T14:06:08;23.90;99.90
18690;DHT22;9782;52.930;15.562;2022-07-17T14:08:43;24.10;99.90
18690;DHT22;9782;52.930;15.562;2022-07-17T14:11:40;24.10;99.90
18690;DHT22;9782;52.930;15.562;2022-07-17T14:14:21;23.90;99.90
18690;DHT22;9782;52.930;15.562;2022-07-17T14:20:16;23.70;99.90
18690;DHT22;9782;52.930;15.562;2022-07-17T14:22:55;23.70;99.90
18690;DHT22;9782;52.930;15.562;2022-07-17T14:25:48;23.60;99.90
18690;DHT22;9782;52.930;15.562;2022-07-17T14:28:19;23.60;99.90
18690;DHT22;9782;52.930;15.562;2022-07-17T14:30:46;23.50;99.90
18690;DHT22;9782;52.930;15.562;2022-07-17T14:33:13;23.50;99.90
18690;DHT22;9782;52.930;15.562;2022-07-17T14:35:41;23.40;99.90
18690;DHT22;9782;52.930;15.562;2022-07-17T14:38:08;23.30;99.90
18690;DHT22;9782;52.930;15.562;2022-07-17T14:40:35;23.30;99.90
18690;DHT22;9782;52.930;15.562;2022-07-17T14:43:02;23.20;99.90
18690;DHT22;9782;52.930;15.562;2022-07-17T14:45:30;23.20;99.90
18690;DHT22;9782;52.930;15.562;2022-07-17T14:47:57;23.20;99.90
18690;DHT22;9782;52.930;15.562;2022-07-17T14:50:24;23.30;99.90
18690;DHT22;9782;52.930;15.562;2022-07-17T14:52:52;23.30;99.90
18690;DHT22;9782;52.930;15.562;2022-07-17T14:55:19;23.20;99.90
18690;DHT22;9782;52.930;15.562;2022-07-17T14:57:46;23.20;99.90
18690;DHT22;9782;52.930;15.562;2022-07-17T15:00:13;23.00;99.90
18690;DHT22;9782;52.930;15.562;2022-07-17T15:02:41;22.90;99.90
18690;DHT22;9782;52.930;15.562;2022-07-17T15:05:08;22.90;99.90
18690;DHT22;9782;52.930;15.562;2022-07-17T15:07:36;23.00;99.90
18690;DHT22;9782;52.930;15.562;2022-07-17T15:10:05;22.90;99.90
18690;DHT22;9782;52.930;15.562;2022-07-17T15:12:32;22.90;99.90
18690;DHT22;9782;52.930;15.562;2022-07-17T15:14:59;22.90;99.90
18690;DHT22;9782;52.930;15.562;2022-07-17T15:17:26;22.90;99.90
18690;DHT22;9782;52.930;15.562;2022-07-17T15:19:53;22.90;99.90
18690;DHT22;9782;52.930;15.562;2022-07-17T15:22:20;22.90;99.90
18690;DHT22;9782;52.930;15.562;2022-07-17T15:24:47;22.80;99.90
18690;DHT22;9782;52.930;15.562;2022-07-17T15:27:17;22.80;99.90
18690;DHT22;9782;52.930;15.562;2022-07-17T15:29:47;22.80;99.90
18690;DHT22;9782;52.930;15.562;2022-07-17T15:32:14;22.80;99.90
18690;DHT22;9782;52.930;15.562;2022-07-17T15:34:44;22.80;99.90
18690;DHT22;9782;52.930;15.562;2022-07-17T15:37:11;22.80;99.90
18690;DHT22;9782;52.930;15.562;2022-07-17T15:39:38;22.80;99.90
18690;DHT22;9782;52.930;15.562;2022-07-17T15:42:05;22.70;99.90
18690;DHT22;9782;52.930;15.562;2022-07-17T15:44:33;22.70;99.90
18690;DHT22;9782;52.930;15.562;2022-07-17T15:47:00;22.70;99.90
18690;DHT22;9782;52.930;15.562;2022-07-17T15:49:27;22.60;99.90
18690;DHT22;9782;52.930;15.562;2022-07-17T15:52:04;22.60;99.90
18690;DHT22;9782;52.930;15.562;2022-07-17T15:54:37;22.50;99.90
18690;DHT22;9782;52.930;15.562;2022-07-17T15:57:20;22.60;99.90
18690;DHT22;9782;52.930;15.562;2022-07-17T15:59:48;22.60;99.90
18690;DHT22;9782;52.930;15.562;2022-07-17T16:02:15;22.50;99.90
18690;DHT22;9782;52.930;15.562;2022-07-17T16:04:42;22.50;99.90
18690;DHT22;9782;52.930;15.562;2022-07-17T16:07:12;22.50;99.90
18690;DHT22;9782;52.930;15.562;2022-07-17T16:09:39;22.50;99.90
18690;DHT22;9782;52.930;15.562;2022-07-17T16:12:06;22.40;99.90
18690;DHT22;9782;52.930;15.562;2022-07-17T16:14:33;22.40;99.90
18690;DHT22;9782;52.930;15.562;2022-07-17T16:17:02;22.40;99.90
18690;DHT22;9782;52.930;15.562;2022-07-17T16:19:29;22.30;99.90
18690;DHT22;9782;52.930;15.562;2022-07-17T16:21:56;22.30;99.90
18690;DHT22;9782;52.930;15.562;2022-07-17T16:24:23;22.40;99.90
18690;DHT22;9782;52.930;15.562;2022-07-17T16:26:50;22.40;99.90
18690;DHT22;9782;52.930;15.562;2022-07-17T16:29:17;22.30;99.90
18690;DHT22;9782;52.930;15.562;2022-07-17T16:31:44;22.30;99.90
18690;DHT22;9782;52.930;15.562;2022-07-17T16:34:13;22.20;99.90
18690;DHT22;9782;52.930;15.562;2022-07-17T16:36:40;22.30;99.90
18690;DHT22;9782;52.930;15.562;2022-07-17T16:39:07;22.20;99.90